Artois, California
Current Conditions -  °F | °C
As of 2:55 AM on Thursday 23 Oct 2014 (Local Time) from KCIC Reporting Station
Broken Clouds Broken Clouds  
Wind Chill: 59°   Ceiling: 11000
Heat Index: 59°   Visibility: 10mi
Dew Point: 48°   Wind: 3mph
Humidity: 67%   Direction: 320°NW
Pressure: 30.02"   Gusts: NA
Location:  39.62°N, 122.2°W
Report Text: KCIC 230955Z AUTO 32003KT 10SM FEW045 BKN110 15/09 A3002 RMK AO1
Loading
Personal Weather Stations






























Interactive Weather Map
Tropical Storm Tracking
New forecast layout! Learn more

10-Day Weather Forecast

Advertisements
Track Severe Weather on mobile